Terminal Aerodrome Forecast
Issued by NWS Grand Forks, ND

Home | Current Version | Previous Version | Text Only | Print | Product List | Glossary On
Versions: 1 2 3 4 5 6 7 8 9 10 11 12
000
FTUS43 KFGF 271600 AAA
TAFGFK
TAF AMD
KGFK 271606Z 2716/2812 29007KT 2SM -SN BKN030
     FM271730 29009KT P6SM BKN030
     FM280900 34007KT P6SM SKC=

USA.gov is the U.S. government's official web portal to all federal, state and local government web resources and services.